Time;durP1;ratioP1;P1;durP2;ratioP2;P2;SDS_P1;SDS_P2;PMS_P1;PMS_P2;Temp;Humidity;BMP_temperature;BMP_pressure;BME280_temperature;BME280_humidity;BME280_pressure;Samples;Min_cycle;Max_cycle;Signal;HPM_P1;HPM_P2
2022/07/12 00:01:09;;;;;;;5.43;3.42;;;19.10;99.90;;;;;;5092987;28;20027;-70
2022/07/12 00:03:34;;;;;;;5.43;3.30;;;19.00;99.90;;;;;;5094423;28;20020;-70
2022/07/12 00:06:01;;;;;;;3.58;3.25;;;19.10;99.90;;;;;;5094645;28;20089;-70
2022/07/12 00:08:27;;;;;;;5.30;4.35;;;19.10;99.90;;;;;;5094459;28;20020;-71
2022/07/12 00:10:53;;;;;;;7.07;3.45;;;19.00;99.90;;;;;;5094256;28;20084;-70
2022/07/12 00:13:19;;;;;;;4.20;3.88;;;19.00;99.90;;;;;;5096180;28;20031;-70
2022/07/12 00:15:45;;;;;;;4.07;3.67;;;19.00;99.90;;;;;;5104249;28;20504;-70
2022/07/12 00:18:10;;;;;;;5.95;3.90;;;19.00;99.90;;;;;;5093508;28;20059;-70
2022/07/12 00:20:37;;;;;;;5.28;4.72;;;19.00;99.90;;;;;;5094285;28;20468;-70
2022/07/12 00:23:03;;;;;;;5.10;4.40;;;18.90;99.90;;;;;;5094194;28;20027;-70
2022/07/12 00:25:29;;;;;;;4.55;3.92;;;18.90;99.90;;;;;;5085184;28;20070;-70
2022/07/12 00:27:55;;;;;;;6.75;4.57;;;18.80;99.90;;;;;;5073871;28;20032;-70
2022/07/12 00:30:21;;;;;;;11.50;5.03;;;18.80;99.90;;;;;;5072972;28;20107;-70
2022/07/12 00:32:47;;;;;;;9.63;4.78;;;18.80;99.90;;;;;;5073468;28;20025;-70
2022/07/12 00:35:14;;;;;;;7.68;4.25;;;18.70;99.90;;;;;;5073734;28;20028;-70
2022/07/12 00:37:40;;;;;;;7.95;4.00;;;18.70;99.90;;;;;;5078074;28;20012;-70
2022/07/12 00:40:10;;;;;;;4.18;3.75;;;18.70;99.90;;;;;;5093547;28;20085;-71
2022/07/12 00:42:38;;;;;;;6.35;3.90;;;18.70;99.90;;;;;;5093470;28;20540;-69
2022/07/12 00:45:05;;;;;;;3.20;3.00;;;18.70;99.90;;;;;;5093941;28;20027;-70
2022/07/12 00:47:37;;;;;;;3.50;3.20;;;18.60;99.90;;;;;;5093486;28;20028;-70
2022/07/12 00:50:11;;;;;;;4.97;4.47;;;18.60;99.90;;;;;;5078852;28;20016;-69
2022/07/12 00:52:38;;;;;;;4.95;4.13;;;18.60;99.90;;;;;;5093662;28;20032;-70
2022/07/12 00:55:05;;;;;;;6.10;4.22;;;18.60;99.90;;;;;;5093595;28;20036;-69
2022/07/12 00:57:35;;;;;;;4.30;3.88;;;18.60;99.90;;;;;;5098049;28;20085;-70
2022/07/12 01:00:03;;;;;;;5.65;5.10;;;18.50;99.90;;;;;;5103842;28;20026;-70
2022/07/12 01:02:29;;;;;;;6.38;5.30;;;18.50;99.90;;;;;;5093690;28;20375;-70
2022/07/12 01:04:55;;;;;;;6.25;5.32;;;18.50;99.90;;;;;;5093550;28;20016;-70
2022/07/12 01:07:23;;;;;;;5.88;5.38;;;18.50;99.90;;;;;;5093598;28;20039;-70
2022/07/12 01:09:49;;;;;;;6.80;4.88;;;18.50;99.90;;;;;;5093533;28;20046;-70
2022/07/12 01:12:15;;;;;;;7.45;5.38;;;18.50;99.90;;;;;;5093361;28;20461;-70
2022/07/12 01:14:41;;;;;;;9.82;4.22;;;18.50;99.90;;;;;;5093375;28;20032;-69
2022/07/12 01:17:07;;;;;;;5.43;4.30;;;18.40;99.90;;;;;;5093254;28;20043;-70
2022/07/12 01:19:36;;;;;;;6.20;4.25;;;18.40;99.90;;;;;;5093714;28;20024;-69
2022/07/12 01:22:06;;;;;;;5.25;4.15;;;18.40;99.90;;;;;;5092764;28;20032;-70
2022/07/12 01:24:32;;;;;;;5.35;4.55;;;18.30;99.90;;;;;;5093458;28;20032;-70
2022/07/12 01:26:58;;;;;;;6.22;5.50;;;18.30;99.90;;;;;;5085663;28;20020;-70
2022/07/12 01:29:24;;;;;;;8.23;3.83;;;18.30;99.90;;;;;;5073535;28;20029;-69
2022/07/12 01:31:50;;;;;;;4.60;4.20;;;18.20;99.90;;;;;;5072939;28;20016;-70
2022/07/12 01:34:16;;;;;;;7.05;4.53;;;18.30;99.90;;;;;;5072185;28;20466;-69
2022/07/12 01:36:42;;;;;;;4.82;4.43;;;18.10;99.90;;;;;;5089824;28;20504;-69
2022/07/12 01:39:08;;;;;;;6.68;3.90;;;18.10;99.90;;;;;;5093089;28;20016;-69
2022/07/12 01:41:34;;;;;;;4.28;3.58;;;18.10;99.90;;;;;;5092898;28;20034;-70
2022/07/12 01:44:00;;;;;;;5.50;4.72;;;18.10;99.90;;;;;;5093294;28;20032;-69
2022/07/12 01:46:25;;;;;;;7.53;4.63;;;18.10;99.90;;;;;;5093161;28;20432;-70
2022/07/12 01:48:51;;;;;;;6.20;4.97;;;18.10;99.90;;;;;;5092851;28;20020;-69
2022/07/12 01:51:17;;;;;;;5.70;5.13;;;18.10;99.90;;;;;;5091378;28;20079;-70
2022/07/12 01:53:42;;;;;;;6.50;5.40;;;18.10;99.90;;;;;;5093118;28;20095;-70
2022/07/12 01:56:09;;;;;;;5.78;5.22;;;18.10;99.90;;;;;;5092317;28;20569;-68
2022/07/12 01:58:34;;;;;;;9.05;5.13;;;18.10;99.90;;;;;;5091709;28;20423;-69
2022/07/12 02:01:00;;;;;;;18.42;5.88;;;18.00;99.90;;;;;;5092968;28;20107;-69
2022/07/12 02:03:26;;;;;;;8.60;6.80;;;18.00;99.90;;;;;;5084043;28;20028;-69
2022/07/12 02:05:51;;;;;;;8.23;7.45;;;17.90;99.90;;;;;;5072567;28;20025;-69
2022/07/12 02:08:17;;;;;;;8.60;6.40;;;17.90;99.90;;;;;;5072653;28;20473;-69
2022/07/12 02:10:43;;;;;;;9.80;5.65;;;17.80;99.90;;;;;;5080914;28;20413;-69
2022/07/12 02:13:10;;;;;;;5.95;5.35;;;17.80;99.90;;;;;;5095863;28;20022;-69
2022/07/12 02:15:36;;;;;;;6.88;5.70;;;17.80;99.90;;;;;;5096907;28;20032;-69
2022/07/12 02:18:01;;;;;;;6.22;5.63;;;17.80;99.90;;;;;;5096863;28;20437;-69
2022/07/12 02:20:27;;;;;;;7.03;5.75;;;17.80;99.90;;;;;;5096621;28;20030;-69
2022/07/12 02:22:52;;;;;;;6.15;5.32;;;17.80;99.90;;;;;;5096563;28;20388;-69
2022/07/12 02:25:18;;;;;;;6.53;5.65;;;17.80;99.90;;;;;;5096436;28;20415;-69
2022/07/12 02:27:44;;;;;;;6.88;5.70;;;17.80;99.90;;;;;;5096948;28;20430;-69
2022/07/12 02:30:10;;;;;;;5.90;5.40;;;17.70;99.90;;;;;;5096428;28;20051;-69
2022/07/12 02:32:37;;;;;;;9.27;6.10;;;17.70;99.90;;;;;;5096333;28;20392;-69
2022/07/12 02:35:06;;;;;;;7.18;5.40;;;17.70;99.90;;;;;;5096421;28;20376;-69
2022/07/12 02:37:32;;;;;;;5.68;5.10;;;17.60;99.90;;;;;;5093646;28;20028;-69
2022/07/12 02:42:43;;;;;;;7.10;5.07;;;17.60;99.90;;;;;;5096209;28;20543;-69
2022/07/12 02:45:09;;;;;;;6.78;5.50;;;17.60;99.90;;;;;;5095480;28;20380;-69
2022/07/12 02:47:40;;;;;;;5.82;5.30;;;17.50;99.90;;;;;;5096206;28;20024;-69
2022/07/12 02:50:06;;;;;;;9.10;5.78;;;17.40;99.90;;;;;;5096267;28;20016;-69
2022/07/12 02:52:33;;;;;;;6.38;5.50;;;17.30;99.90;;;;;;5095724;28;20028;-69
2022/07/12 02:54:58;;;;;;;7.95;5.55;;;17.30;99.90;;;;;;5095816;28;20101;-69
2022/07/12 02:57:24;;;;;;;6.57;5.22;;;17.30;99.90;;;;;;5095932;28;20476;-69
2022/07/12 02:59:50;;;;;;;7.90;5.45;;;17.40;99.90;;;;;;5096102;28;20017;-69
2022/07/12 03:02:16;;;;;;;6.75;4.93;;;17.30;99.90;;;;;;5095802;28;20384;-68
2022/07/12 03:04:42;;;;;;;4.97;4.53;;;17.30;99.90;;;;;;5096109;28;20020;-69
2022/07/12 03:07:07;;;;;;;5.80;4.78;;;17.30;99.90;;;;;;5088674;28;20025;-68
2022/07/12 03:09:33;;;;;;;6.25;5.13;;;17.20;99.90;;;;;;5075215;28;20040;-68
2022/07/12 03:11:58;;;;;;;5.68;5.18;;;17.10;99.90;;;;;;5074696;28;20020;-69
2022/07/12 03:14:24;;;;;;;8.60;5.20;;;17.10;99.90;;;;;;5074874;28;20338;-69
2022/07/12 03:16:50;;;;;;;5.05;4.55;;;17.00;99.90;;;;;;5074089;28;20082;-69
2022/07/12 03:19:16;;;;;;;5.70;4.95;;;17.00;99.90;;;;;;5075540;28;20366;-69
2022/07/12 03:21:42;;;;;;;7.35;4.70;;;17.10;99.90;;;;;;5087787;28;20039;-69
2022/07/12 03:24:08;;;;;;;8.13;5.43;;;17.10;99.90;;;;;;5095543;28;20044;-69
2022/07/12 03:26:33;;;;;;;5.95;5.35;;;17.10;99.90;;;;;;5095434;28;20055;-69
2022/07/12 03:29:02;;;;;;;8.38;4.90;;;17.10;99.90;;;;;;5095550;28;20024;-69
2022/07/12 03:31:28;;;;;;;5.43;4.95;;;17.00;99.90;;;;;;5093117;28;20028;-69
2022/07/12 03:33:54;;;;;;;5.57;5.07;;;17.00;99.90;;;;;;5093103;28;20065;-69
2022/07/12 03:36:20;;;;;;;5.18;4.57;;;17.00;99.90;;;;;;5093415;28;20040;-68
2022/07/12 03:38:46;;;;;;;7.72;4.85;;;17.00;99.90;;;;;;5087104;28;20489;-69
2022/07/12 03:41:11;;;;;;;6.90;4.80;;;16.90;99.90;;;;;;5085264;28;20115;-69
2022/07/12 03:43:37;;;;;;;5.07;4.60;;;16.90;99.90;;;;;;5095224;28;20027;-69
2022/07/12 03:46:03;;;;;;;5.43;4.95;;;16.80;99.90;;;;;;5094984;28;20031;-69
2022/07/12 03:48:29;;;;;;;5.75;5.10;;;16.80;99.90;;;;;;5094885;28;20027;-69
2022/07/12 03:50:55;;;;;;;7.28;4.90;;;16.70;99.90;;;;;;5094720;28;20111;-69
2022/07/12 03:53:21;;;;;;;8.77;5.72;;;16.70;99.90;;;;;;5093952;28;20055;-69
2022/07/12 03:55:47;;;;;;;7.60;4.78;;;16.60;99.90;;;;;;5094219;28;20421;-69
2022/07/12 03:58:12;;;;;;;8.05;4.60;;;16.60;99.90;;;;;;5094207;28;20128;-69
2022/07/12 04:00:40;;;;;;;8.55;5.15;;;16.60;99.90;;;;;;5094839;28;20028;-69
2022/07/12 04:03:05;;;;;;;6.72;5.00;;;16.60;99.90;;;;;;5094669;28;20020;-69
2022/07/12 04:05:31;;;;;;;8.68;5.60;;;16.60;99.90;;;;;;5094399;28;20031;-69
2022/07/12 04:07:57;;;;;;;7.03;5.95;;;16.70;99.90;;;;;;5094434;28;20465;-70
2022/07/12 04:10:22;;;;;;;6.95;5.00;;;16.70;99.90;;;;;;5094725;28;20031;-69
2022/07/12 04:12:48;;;;;;;6.25;4.95;;;16.60;99.90;;;;;;5094054;28;20054;-70
2022/07/12 04:15:14;;;;;;;5.38;4.75;;;16.60;99.90;;;;;;5094330;28;20027;-69
2022/07/12 04:17:39;;;;;;;7.05;5.70;;;16.60;99.90;;;;;;5094068;28;20047;-69
2022/07/12 04:20:06;;;;;;;9.07;5.60;;;16.60;99.90;;;;;;5094265;28;20046;-69
2022/07/12 04:22:32;;;;;;;6.40;4.70;;;16.50;99.90;;;;;;5094381;28;20035;-69
2022/07/12 04:24:58;;;;;;;5.10;4.70;;;16.40;99.90;;;;;;5094692;28;20032;-69
2022/07/12 04:27:26;;;;;;;12.63;5.47;;;16.40;99.90;;;;;;5089601;28;20043;-69
2022/07/12 04:29:53;;;;;;;6.40;5.35;;;16.40;99.90;;;;;;5080331;28;20063;-70
2022/07/12 04:32:19;;;;;;;5.80;4.30;;;16.40;99.90;;;;;;5092437;28;20023;-69
2022/07/12 04:34:44;;;;;;;4.70;4.10;;;16.30;99.90;;;;;;5093058;28;20384;-69
2022/07/12 04:37:10;;;;;;;7.63;4.32;;;16.30;99.90;;;;;;5092700;28;20028;-69
2022/07/12 04:39:36;;;;;;;6.55;4.57;;;16.40;99.90;;;;;;5094054;28;20030;-69
2022/07/12 04:42:01;;;;;;;6.65;4.95;;;16.40;99.90;;;;;;5094296;28;20044;-70
2022/07/12 04:44:27;;;;;;;8.20;4.63;;;16.40;99.90;;;;;;5094019;28;20049;-69
2022/07/12 04:46:53;;;;;;;6.93;5.05;;;16.40;99.90;;;;;;5093510;28;20392;-70
2022/07/12 04:49:18;;;;;;;13.57;6.15;;;16.40;99.90;;;;;;5093754;28;20085;-70
2022/07/12 04:51:45;;;;;;;7.28;6.28;;;16.40;99.90;;;;;;5092942;28;20058;-70
2022/07/12 04:54:10;;;;;;;6.50;5.72;;;16.50;99.90;;;;;;5091114;28;20051;-70
2022/07/12 04:56:36;;;;;;;6.57;5.85;;;16.50;99.90;;;;;;5093616;28;20492;-69
2022/07/12 04:59:02;;;;;;;6.72;5.28;;;16.50;99.90;;;;;;5083468;28;20027;-70
2022/07/12 05:01:32;;;;;;;7.22;4.95;;;16.50;99.90;;;;;;5073379;28;20381;-69
2022/07/12 05:03:58;;;;;;;7.03;4.55;;;16.50;99.90;;;;;;5073047;28;20024;-70
2022/07/12 05:06:24;;;;;;;9.23;5.22;;;16.50;99.90;;;;;;5082207;28;20380;-70
2022/07/12 05:08:50;;;;;;;12.15;4.28;;;16.60;99.90;;;;;;5093538;28;20091;-70
2022/07/12 05:11:15;;;;;;;7.03;4.22;;;16.60;99.90;;;;;;5093723;28;20021;-71
2022/07/12 05:13:42;;;;;;;4.43;4.03;;;16.50;99.90;;;;;;5093346;28;20194;-70
2022/07/12 05:16:08;;;;;;;6.88;4.13;;;16.50;99.90;;;;;;5093155;28;20028;-70
2022/07/12 05:18:35;;;;;;;8.48;4.28;;;16.50;99.90;;;;;;5093225;28;20381;-69
2022/07/12 05:21:01;;;;;;;8.00;5.40;;;16.50;99.90;;;;;;5093586;28;20103;-70
2022/07/12 05:23:27;;;;;;;9.05;6.07;;;16.60;99.90;;;;;;5080552;28;20025;-70
2022/07/12 05:25:52;;;;;;;5.88;5.22;;;16.60;99.90;;;;;;5091876;28;20068;-70
2022/07/12 05:28:18;;;;;;;8.60;6.00;;;16.70;99.90;;;;;;5093232;28;20051;-70
2022/07/12 05:30:44;;;;;;;8.27;5.80;;;16.80;99.90;;;;;;5092977;28;20107;-72
2022/07/12 05:33:12;;;;;;;9.13;6.13;;;16.90;99.90;;;;;;5093098;28;20377;-71
2022/07/12 05:35:38;;;;;;;10.27;6.90;;;16.90;99.90;;;;;;5093062;28;20380;-72
2022/07/12 05:38:03;;;;;;;11.10;7.78;;;17.00;99.90;;;;;;5092241;28;20499;-72
2022/07/12 05:40:29;;;;;;;12.65;10.07;;;17.00;99.90;;;;;;5092657;28;20028;-72
2022/07/12 05:42:55;;;;;;;19.42;11.68;;;17.10;99.90;;;;;;5093094;28;20027;-72
2022/07/12 05:45:22;;;;;;;14.82;10.07;;;17.10;99.90;;;;;;5092507;28;20032;-72
2022/07/12 05:47:48;;;;;;;11.40;8.75;;;17.20;99.90;;;;;;5092512;28;20067;-72
2022/07/12 05:50:14;;;;;;;12.40;10.80;;;17.20;99.90;;;;;;5092792;28;20016;-72
2022/07/12 05:55:24;;;;;;;13.95;10.20;;;17.30;99.90;;;;;;5091711;28;20055;-72
2022/07/12 05:57:49;;;;;;;11.13;8.35;;;17.40;99.90;;;;;;5092710;28;20392;-72
2022/07/12 06:00:15;;;;;;;15.45;9.75;;;17.50;99.90;;;;;;5092562;28;20085;-71
2022/07/12 06:02:41;;;;;;;21.98;11.50;;;17.60;99.90;;;;;;5092723;28;20070;-72
2022/07/12 06:05:07;;;;;;;19.55;13.48;;;17.60;99.90;;;;;;5092907;28;20051;-72
2022/07/12 06:07:33;;;;;;;18.05;11.73;;;17.70;99.90;;;;;;5092176;28;20028;-71
2022/07/12 06:09:58;;;;;;;15.40;12.45;;;17.70;99.90;;;;;;5092709;28;20103;-72
2022/07/12 06:12:24;;;;;;;16.10;13.48;;;17.90;99.90;;;;;;5091454;28;20078;-72
2022/07/12 06:14:49;;;;;;;14.98;12.82;;;18.00;99.90;;;;;;5092480;28;20028;-72
2022/07/12 06:17:15;;;;;;;16.30;13.13;;;18.10;99.90;;;;;;5091997;28;20046;-72
2022/07/12 06:19:41;;;;;;;21.08;13.85;;;18.10;99.90;;;;;;5092737;28;20020;-71
2022/07/12 06:22:06;;;;;;;18.27;13.80;;;18.10;99.90;;;;;;5092091;28;20039;-73
2022/07/12 06:24:32;;;;;;;17.73;14.05;;;18.10;99.90;;;;;;5092487;28;20130;-74
2022/07/12 06:26:58;;;;;;;19.95;13.93;;;18.20;99.90;;;;;;5092500;28;20410;-73
2022/07/12 06:29:23;;;;;;;19.30;14.43;;;18.20;99.90;;;;;;5092021;28;20494;-74
2022/07/12 06:31:49;;;;;;;21.27;15.82;;;18.40;99.90;;;;;;5092271;28;20031;-71
2022/07/12 06:34:15;;;;;;;16.55;13.13;;;18.40;99.90;;;;;;5092577;28;20027;-72
2022/07/12 06:36:43;;;;;;;13.23;11.00;;;18.50;99.90;;;;;;5091819;28;20473;-72
2022/07/12 06:39:09;;;;;;;14.00;11.05;;;18.50;99.90;;;;;;5092749;28;20024;-71
2022/07/12 06:41:34;;;;;;;22.88;17.17;;;18.70;99.90;;;;;;5092228;28;20489;-72
2022/07/12 06:44:00;;;;;;;17.60;14.98;;;18.80;99.90;;;;;;5092779;28;20154;-72
2022/07/12 06:46:26;;;;;;;18.58;16.08;;;18.90;99.90;;;;;;5091581;28;20028;-71
2022/07/12 06:48:51;;;;;;;19.00;15.40;;;19.10;99.90;;;;;;5092745;28;20049;-72
2022/07/12 06:51:17;;;;;;;19.50;17.02;;;19.30;99.90;;;;;;5092376;28;20031;-72
2022/07/12 06:53:42;;;;;;;14.68;11.88;;;19.50;99.90;;;;;;5092354;28;20380;-72
2022/07/12 06:56:08;;;;;;;16.90;12.77;;;19.60;99.90;;;;;;5093773;28;20081;-72
2022/07/12 06:58:34;;;;;;;14.77;13.05;;;19.70;99.90;;;;;;5096056;28;20028;-72
2022/07/12 07:00:59;;;;;;;16.98;14.20;;;19.90;99.90;;;;;;5095575;28;20024;-72
2022/07/12 07:03:25;;;;;;;20.00;15.23;;;20.10;99.90;;;;;;5095684;28;20070;-72
2022/07/12 07:05:50;;;;;;;16.95;14.00;;;20.10;99.90;;;;;;5095775;28;20430;-72
2022/07/12 07:08:16;;;;;;;15.90;11.43;;;20.20;99.90;;;;;;5095574;28;20028;-72
2022/07/12 07:10:42;;;;;;;15.15;13.55;;;20.30;99.90;;;;;;5095416;28;20477;-73
2022/07/12 07:13:10;;;;;;;14.45;12.65;;;20.40;99.90;;;;;;5096018;28;20111;-72
2022/07/12 07:15:38;;;;;;;13.73;12.05;;;20.60;99.90;;;;;;5095251;28;20024;-72
2022/07/12 07:18:04;;;;;;;14.55;12.98;;;20.60;99.90;;;;;;5095698;28;20388;-72
2022/07/12 07:20:30;;;;;;;12.60;11.20;;;20.70;99.90;;;;;;5095799;28;20027;-72
2022/07/12 07:22:55;;;;;;;13.07;11.75;;;20.90;99.90;;;;;;5095019;28;20032;-73
2022/07/12 07:25:21;;;;;;;12.07;10.88;;;20.90;99.90;;;;;;5095366;28;20111;-72
2022/07/12 07:27:46;;;;;;;11.32;10.25;;;21.20;99.90;;;;;;5095430;28;20036;-72
2022/07/12 07:32:56;;;;;;;10.27;9.27;;;21.40;99.90;;;;;;5095429;28;20042;-73
2022/07/12 07:35:22;;;;;;;11.93;10.80;;;21.70;99.90;;;;;;5094513;28;20092;-73
2022/07/12 07:37:47;;;;;;;14.07;9.75;;;21.70;99.90;;;;;;5094697;28;20032;-73
2022/07/12 07:40:13;;;;;;;11.25;9.60;;;21.90;99.90;;;;;;5095199;28;20035;-73
2022/07/12 07:42:38;;;;;;;8.55;7.75;;;22.00;99.90;;;;;;5095294;28;20032;-73
2022/07/12 07:45:06;;;;;;;11.05;7.93;;;22.10;99.90;;;;;;5094735;28;20020;-73
2022/07/12 07:47:41;;;;;;;6.82;5.95;;;22.30;99.90;;;;;;5094703;28;20110;-73
2022/07/12 07:50:07;;;;;;;6.53;5.93;;;22.40;99.90;;;;;;5095249;28;20037;-74
2022/07/12 07:52:33;;;;;;;14.10;12.57;;;22.40;99.90;;;;;;5093718;28;20384;-74
2022/07/12 07:54:58;;;;;;;11.98;10.68;;;22.40;99.90;;;;;;5094918;28;20028;-73
2022/07/12 07:57:25;;;;;;;12.48;11.27;;;22.50;99.90;;;;;;5094474;28;20484;-74
2022/07/12 07:59:50;;;;;;;10.80;9.80;;;22.60;99.90;;;;;;5092394;28;20073;-72
2022/07/12 08:02:16;;;;;;;11.15;10.02;;;22.80;99.90;;;;;;5094938;28;20103;-73
2022/07/12 08:04:41;;;;;;;13.70;10.38;;;22.90;99.90;;;;;;5075608;28;20488;-73
2022/07/12 08:07:07;;;;;;;10.63;9.40;;;22.90;99.90;;;;;;5073785;28;20028;-73
2022/07/12 08:09:33;;;;;;;12.15;11.05;;;22.90;99.90;;;;;;5082493;28;20106;-72
2022/07/12 08:11:58;;;;;;;10.23;9.23;;;23.10;99.90;;;;;;5094622;28;20456;-74
2022/07/12 08:14:24;;;;;;;11.07;10.00;;;23.10;99.90;;;;;;5094453;28;20055;-73
2022/07/12 08:16:49;;;;;;;13.00;10.48;;;23.20;99.90;;;;;;5094151;28;20036;-73
2022/07/12 08:19:15;;;;;;;10.30;9.25;;;23.10;99.90;;;;;;5094394;28;20059;-73
2022/07/12 08:21:41;;;;;;;10.02;9.05;;;23.10;99.90;;;;;;5094444;28;20468;-73
2022/07/12 08:24:06;;;;;;;9.38;8.48;;;23.30;99.90;;;;;;5094234;28;20028;-72
2022/07/12 08:26:32;;;;;;;11.55;7.85;;;23.40;99.90;;;;;;5094124;28;20040;-72
2022/07/12 08:28:57;;;;;;;8.02;7.30;;;23.50;99.90;;;;;;5091410;28;20114;-74
2022/07/12 08:31:23;;;;;;;14.43;9.65;;;23.30;99.90;;;;;;5093689;28;20028;-73
2022/07/12 08:33:49;;;;;;;10.55;9.60;;;23.30;99.90;;;;;;5093613;28;20024;-73
2022/07/12 08:36:14;;;;;;;9.10;8.30;;;23.20;99.90;;;;;;5093104;28;20149;-73
2022/07/12 08:38:43;;;;;;;9.35;7.25;;;23.40;99.90;;;;;;5092716;28;20024;-73
2022/07/12 08:41:11;;;;;;;8.82;7.10;;;23.70;99.90;;;;;;5081595;28;20020;-73
2022/07/12 08:43:37;;;;;;;9.55;8.60;;;23.90;99.90;;;;;;5081221;28;20473;-73
2022/07/12 08:46:07;;;;;;;11.65;8.20;;;23.80;99.90;;;;;;5092898;28;20030;-73
2022/07/12 08:48:36;;;;;;;11.65;7.05;;;23.90;99.90;;;;;;5093550;28;20083;-73
2022/07/12 08:51:04;;;;;;;12.18;7.55;;;24.00;99.90;;;;;;5093856;28;20099;-73
2022/07/12 08:53:30;;;;;;;7.50;6.80;;;24.10;99.90;;;;;;5093560;28;20103;-73
2022/07/12 08:55:57;;;;;;;8.73;7.57;;;24.10;99.90;;;;;;5093290;28;20053;-73
2022/07/12 08:58:22;;;;;;;9.55;7.57;;;24.20;99.90;;;;;;5093357;28;20519;-73
2022/07/12 09:00:48;;;;;;;10.57;8.90;;;24.20;99.90;;;;;;5091835;28;20016;-72
2022/07/12 09:03:14;;;;;;;12.98;8.10;;;24.30;99.90;;;;;;5090219;28;20111;-73
2022/07/12 09:05:51;;;;;;;6.95;6.22;;;24.20;99.90;;;;;;5083340;28;20020;-71
2022/07/12 09:08:18;;;;;;;8.50;7.68;;;24.40;99.90;;;;;;5079924;28;20460;-74
2022/07/12 09:10:50;;;;;;;7.32;6.60;;;24.50;99.90;;;;;;5091582;28;20070;-73
2022/07/12 09:13:16;;;;;;;7.15;6.55;;;24.50;99.90;;;;;;5093403;28;20028;-73
2022/07/12 09:15:42;;;;;;;6.90;6.30;;;24.60;99.90;;;;;;5093021;28;20028;-73
2022/07/12 09:18:13;;;;;;;5.53;5.10;;;24.80;99.90;;;;;;5092159;28;20030;-73
2022/07/12 09:20:41;;;;;;;7.60;5.25;;;25.00;99.90;;;;;;5093016;28;20102;-73
2022/07/12 09:23:09;;;;;;;7.45;4.35;;;25.10;99.90;;;;;;5093166;28;20503;-72
2022/07/12 09:25:35;;;;;;;6.72;6.03;;;25.30;99.90;;;;;;5090961;28;20024;-73
2022/07/12 09:28:06;;;;;;;7.03;5.80;;;25.40;99.90;;;;;;5092415;28;20028;-73
2022/07/12 09:30:32;;;;;;;8.95;5.60;;;25.50;99.90;;;;;;5097107;28;20473;-72
2022/07/12 09:36:15;;;;;;;6.85;6.22;;;25.90;99.90;;;;;;5093083;28;20039;-73
2022/07/12 09:39:00;;;;;;;8.52;6.70;;;25.70;99.90;;;;;;5086384;28;20086;-73
2022/07/12 09:41:26;;;;;;;6.55;5.38;;;25.70;99.90;;;;;;5072969;28;20055;-72
2022/07/12 09:43:53;;;;;;;6.10;5.00;;;25.90;99.90;;;;;;5078059;28;20049;-73
2022/07/12 09:46:19;;;;;;;8.70;6.22;;;26.30;99.90;;;;;;5093259;28;20107;-73
2022/07/12 09:48:46;;;;;;;6.97;6.22;;;26.40;99.90;;;;;;5092648;28;20106;-73
2022/07/12 09:51:17;;;;;;;6.82;6.22;;;26.20;99.90;;;;;;5080467;28;20588;-77
2022/07/12 09:53:47;;;;;;;5.53;5.03;;;26.40;99.90;;;;;;5071703;28;20016;-73
2022/07/12 09:56:15;;;;;;;5.63;5.05;;;26.60;99.90;;;;;;5072723;28;20038;-72
2022/07/12 09:58:47;;;;;;;6.18;5.68;;;26.70;99.90;;;;;;5090116;28;20024;-73
2022/07/12 10:01:15;;;;;;;6.30;5.00;;;27.00;99.90;;;;;;5093045;28;20020;-73
2022/07/12 10:03:42;;;;;;;5.75;5.05;;;27.20;99.90;;;;;;5092567;28;20059;-73
2022/07/12 10:06:11;;;;;;;6.55;5.75;;;27.30;99.90;;;;;;5092588;28;20109;-73
2022/07/12 10:08:36;;;;;;;5.72;5.22;;;27.40;99.90;;;;;;5092671;28;20020;-74
2022/07/12 10:11:02;;;;;;;5.80;5.40;;;27.40;99.90;;;;;;5092741;28;20028;-73
2022/07/12 10:13:30;;;;;;;5.72;5.28;;;27.40;99.90;;;;;;5092988;28;20030;-73
2022/07/12 10:16:03;;;;;;;5.97;4.60;;;27.40;99.90;;;;;;5087727;28;20031;-71
2022/07/12 10:18:29;;;;;;;4.95;4.10;;;27.40;99.90;;;;;;5092083;28;20362;-73
2022/07/12 10:20:55;;;;;;;4.45;4.15;;;27.30;99.90;;;;;;5093281;28;20561;-73
2022/07/12 10:23:34;;;;;;;5.68;5.18;;;27.40;99.90;;;;;;5090954;28;20084;-73
2022/07/12 10:26:15;;;;;;;5.28;4.78;;;27.70;99.90;;;;;;5074618;28;20043;-72
2022/07/12 10:29:00;;;;;;;6.55;5.45;;;27.80;99.90;;;;;;5071890;28;20524;-73
2022/07/12 10:31:37;;;;;;;5.47;5.07;;;27.70;99.90;;;;;;5074155;28;20028;-73
2022/07/12 10:34:13;;;;;;;5.22;4.80;;;27.80;99.90;;;;;;5091540;28;20020;-73
2022/07/12 10:37:05;;;;;;;4.35;3.95;;;27.80;99.90;;;;;;5096355;28;20105;-73
2022/07/12 10:39:31;;;;;;;4.22;3.80;;;27.70;99.90;;;;;;5087111;28;20085;-73
2022/07/12 10:42:17;;;;;;;4.18;3.30;;;28.00;99.50;;;;;;5096168;28;20115;-73
2022/07/12 10:44:45;;;;;;;3.42;2.58;;;28.10;99.90;;;;;;5096143;28;20032;-73
2022/07/12 10:47:15;;;;;;;5.82;5.13;;;28.30;99.90;;;;;;5095705;28;20436;-73
2022/07/12 10:49:59;;;;;;;6.35;5.25;;;28.30;99.00;;;;;;5096035;28;20050;-73
2022/07/12 10:52:26;;;;;;;4.90;4.10;;;27.80;99.30;;;;;;5095827;28;20035;-73
2022/07/12 10:54:55;;;;;;;5.95;5.03;;;27.90;99.90;;;;;;5091047;28;20055;-73
2022/07/12 10:57:43;;;;;;;4.60;4.13;;;28.20;99.30;;;;;;5095979;28;20044;-73
2022/07/12 11:00:10;;;;;;;4.95;4.43;;;28.50;99.80;;;;;;5108266;28;20025;-73
2022/07/12 11:02:36;;;;;;;5.20;4.78;;;28.40;98.90;;;;;;5075728;28;20036;-73
2022/07/12 11:05:03;;;;;;;5.40;4.28;;;28.40;98.50;;;;;;5075877;28;20461;-73
2022/07/12 11:07:29;;;;;;;4.55;4.15;;;28.60;99.10;;;;;;5074563;28;20029;-73
2022/07/12 11:09:55;;;;;;;4.43;4.03;;;28.70;98.60;;;;;;5086211;28;20103;-73
2022/07/12 11:12:28;;;;;;;4.00;3.70;;;28.60;97.80;;;;;;5095470;28;20569;-73
2022/07/12 11:14:54;;;;;;;4.28;3.88;;;28.50;97.90;;;;;;5095391;28;20036;-74
2022/07/12 11:17:28;;;;;;;4.50;4.10;;;28.80;98.50;;;;;;5094973;28;20032;-73
2022/07/12 11:20:09;;;;;;;4.78;4.00;;;29.00;99.00;;;;;;5095457;28;20158;-73
2022/07/12 11:22:36;;;;;;;4.18;3.85;;;29.10;96.60;;;;;;5095402;28;20024;-73
2022/07/12 11:25:03;;;;;;;3.97;3.67;;;29.20;95.90;;;;;;5095756;28;20027;-73
2022/07/12 11:27:29;;;;;;;3.28;3.08;;;29.20;96.30;;;;;;5094989;28;20032;-73
2022/07/12 11:30:03;;;;;;;4.30;3.22;;;29.30;95.70;;;;;;5095219;28;20516;-73
2022/07/12 11:32:43;;;;;;;7.35;3.45;;;29.30;95.80;;;;;;5095503;28;20031;-73
2022/07/12 11:35:22;;;;;;;3.70;3.38;;;29.20;96.40;;;;;;5095702;28;20487;-73
2022/07/12 11:37:50;;;;;;;6.97;3.60;;;29.10;95.40;;;;;;5095189;28;20119;-73
2022/07/12 11:40:20;;;;;;;4.88;3.30;;;29.20;95.60;;;;;;5095347;28;20385;-73
2022/07/12 11:42:58;;;;;;;3.08;2.70;;;29.10;95.00;;;;;;5093986;28;20369;-73
2022/07/12 11:45:27;;;;;;;4.82;3.72;;;29.20;94.60;;;;;;5094275;28;20095;-74
2022/07/12 11:47:54;;;;;;;4.85;3.95;;;29.20;94.30;;;;;;5094586;28;20111;-73
2022/07/12 11:50:20;;;;;;;3.70;3.50;;;29.20;96.20;;;;;;5095031;28;20031;-73
2022/07/12 11:52:46;;;;;;;3.70;3.50;;;29.00;95.70;;;;;;5095233;28;20024;-74
2022/07/12 11:55:12;;;;;;;3.63;3.08;;;29.20;95.50;;;;;;5095034;28;20031;-73
2022/07/12 11:57:37;;;;;;;5.20;3.20;;;29.30;95.70;;;;;;5094403;28;20044;-73
2022/07/12 12:00:20;;;;;;;3.78;3.47;;;29.40;95.00;;;;;;5094890;28;20028;-73
2022/07/12 12:02:51;;;;;;;3.60;3.30;;;29.50;94.40;;;;;;5095220;28;20144;-73
2022/07/12 12:05:17;;;;;;;3.50;3.30;;;29.60;96.10;;;;;;5094646;28;20020;-73
2022/07/12 12:07:43;;;;;;;3.40;3.10;;;29.60;94.40;;;;;;5094632;28;20472;-73
2022/07/12 12:10:13;;;;;;;4.50;2.90;;;29.80;94.50;;;;;;5095052;28;20028;-72
2022/07/12 12:12:52;;;;;;;3.70;3.22;;;29.80;94.40;;;;;;5094275;28;20049;-73
2022/07/12 12:15:19;;;;;;;3.47;3.20;;;30.00;94.00;;;;;;5094670;28;20032;-74
2022/07/12 12:17:55;;;;;;;3.35;3.05;;;30.00;94.00;;;;;;5091170;28;20088;-73
2022/07/12 12:20:23;;;;;;;3.13;2.92;;;30.30;93.10;;;;;;5094194;28;20023;-74
2022/07/12 12:22:54;;;;;;;3.92;2.85;;;30.50;94.50;;;;;;5092376;28;20103;-73
2022/07/12 12:25:20;;;;;;;3.25;3.00;;;30.40;93.50;;;;;;5093903;28;20028;-73
2022/07/12 12:27:48;;;;;;;3.45;3.00;;;30.40;94.00;;;;;;5092629;28;20086;-75
2022/07/12 12:30:16;;;;;;;4.65;3.15;;;30.40;92.20;;;;;;5093620;28;20016;-74
2022/07/12 12:32:52;;;;;;;3.00;2.80;;;30.30;92.10;;;;;;5093831;28;20027;-74
2022/07/12 12:35:20;;;;;;;3.70;2.80;;;30.50;92.70;;;;;;5094175;28;20350;-75
2022/07/12 12:37:53;;;;;;;4.00;2.80;;;30.30;92.10;;;;;;5093083;28;20093;-75
2022/07/12 12:40:21;;;;;;;3.00;2.80;;;30.40;93.60;;;;;;5093167;28;20020;-74
2022/07/12 12:42:47;;;;;;;174.65;20.85;;;30.40;92.20;;;;;;5093746;28;20028;-74
2022/07/12 12:45:23;;;;;;;3.60;3.10;;;30.40;93.00;;;;;;5091080;28;20444;-74
2022/07/12 12:47:55;;;;;;;4.25;2.97;;;30.40;93.00;;;;;;5092306;28;20039;-74
2022/07/12 12:50:41;;;;;;;5.38;2.90;;;30.10;92.90;;;;;;5093006;28;20073;-75
2022/07/12 12:53:26;;;;;;;3.05;2.75;;;30.30;91.90;;;;;;5091344;28;20089;-75
2022/07/12 12:55:54;;;;;;;3.28;2.35;;;30.50;91.30;;;;;;5087795;28;20063;-75